Portada
METAR-TAF:

METAR-TAF

Aeroports :

Antsiranana, Madagascar

latitud: 12-21S, longitud: 049-18E, altitud: 114 m

Observació

L'informe es va fer fa 4 hores i 48 minuts, a les 04:00 UTC
Vent 10 kt del Sud-Est
Temperatura 27°C
Humitat 74%
Pressió 1013 hPa
Visibilitat 10 km o més
Cel ennuvolat a una alçada de 2000 ft

METAR: FMNA 230400Z 14010KT 9999 BKN020 27/22 Q1013

Hora: 11:48 (08:48 UTC)

Pronòstic

L'informe es va fer fa 3 hores i 48 minuts, a les 05:00 UTC
Pronòstic vàlid del 23 a les 06 UTC al 24 a les 06 UTC
Vent 12 kt del Est
Visibilitat 10 km o més
Cel ennuvolat a una alçada de 2000 ft
Núvols disperses a una alçada de 4000 ft
Temporalment
l' 23 a les 09 UTC al 23 a les 12 UTC
Visibilitat: 4500 m
pluja
Probabilitat 40% :
Temporalment
l' 23 a les 21 UTC al 24 a les 06 UTC
Visibilitat: 4500 m
pluja

TAF: FMNA 230500Z 2306/2406 10012KT 9999 BKN020 SCT040 TEMPO 2309/2312 4500 RA PROB40 TEMPO 2321/2406 4500 RA

Observacions i pronòstics meteorològics de més de 4000 aeroports (METAR i TAF).

Les estacions disponibles són els punts grocs i vermells al mapa.

Posi el ratolí al punt desitjat per veure el nom de l'estació.

Feu clic per veure les observacions i els pronòstics meteorològics.

Per canviar el mapa: feu clic els botons verds amb una creu de color negre per apropar; al botó verd amb un guió per allunyar la imatge; o en les fletxes verdes per a mapes adjacents.


METAR-TAF: